Terminal Aerodrome Forecast
Issued by NWS Louisville, KY

Home | Current Version | Previous Version | Graphics & Text | Print | Product List | Glossary On
Versions: 1 2 3 4 5 6 7 8 9 10 11 12 13 14 15 16 17 18 19 20 21
000
FTUS43 KLMK 291854 AAA
TAFLEX
TAF AMD
KLEX 291854Z 2919/3018 24005KT 6SM -SHRA BKN035
     FM292100 23006KT P6SM VCTS BKN035CB
     FM300300 VRB03KT P6SM SCT080
     FM300800 21004KT 4SM BR BKN015
     FM301400 25006KT P6SM BKN030=

USA.gov is the U.S. government's official web portal to all federal, state and local government web resources and services.